Time;durP1;ratioP1;P1;durP2;ratioP2;P2;SDS_P1;SDS_P2;PMS_P1;PMS_P2;Temp;Humidity;BMP_temperature;BMP_pressure;BME280_temperature;BME280_humidity;BME280_pressure;Samples;Min_cycle;Max_cycle;Signal;HPM_P1;HPM_P2
2022/01/24 00:01:49;;;;;;;14.13;5.88;;;;;;;3.43;85.27;100141.78;5074898;28;20017;-66
2022/01/24 00:04:15;;;;;;;12.23;5.47;;;;;;;3.40;85.32;100141.66;5077932;28;20013;-66
2022/01/24 00:06:41;;;;;;;22.85;8.60;;;;;;;3.29;85.52;100127.41;5077037;28;20031;-66
2022/01/24 00:09:07;;;;;;;17.95;5.72;;;;;;;3.34;85.33;100125.84;5073984;28;20244;-66
2022/01/24 00:17:18;;;;;;;10.73;4.78;;;;;;;3.35;85.12;100130.22;5076376;28;20220;-66
2022/01/24 00:27:57;;;;;;;15.48;5.75;;;;;;;3.23;85.72;100122.00;5074499;28;20020;-65
2022/01/24 00:30:22;;;;;;;13.25;5.72;;;;;;;3.16;86.38;100114.81;5077503;28;20212;-65
2022/01/24 00:32:47;;;;;;;15.73;5.90;;;;;;;3.11;86.55;100115.50;5071443;28;20029;-65
2022/01/24 00:35:13;;;;;;;18.02;7.68;;;;;;;2.99;86.66;100110.78;5073893;28;20316;-65
2022/01/24 00:37:39;;;;;;;15.43;6.25;;;;;;;2.93;87.16;100114.88;5075791;28;20028;-65
2022/01/24 00:40:05;;;;;;;18.50;8.43;;;;;;;2.92;87.38;100111.41;5073885;28;20020;-65
2022/01/24 00:55:20;;;;;;;9.07;4.93;;;;;;;2.45;88.82;100103.69;5076487;28;20074;-65
2022/01/24 00:57:45;;;;;;;12.27;5.03;;;;;;;2.32;89.34;100109.25;5074040;28;20016;-65
2022/01/24 01:00:11;;;;;;;12.45;5.60;;;;;;;2.15;89.43;100102.53;5072969;28;20122;-65
2022/01/24 01:02:38;;;;;;;14.35;6.20;;;;;;;2.05;89.85;100103.03;5075563;28;20021;-65
2022/01/24 01:05:31;;;;;;;19.58;7.75;;;;;;;1.96;90.70;100108.78;5071178;28;20017;-65
2022/01/24 01:08:12;;;;;;;13.25;6.47;;;;;;;1.81;90.99;100099.53;5070187;28;20024;-65
2022/01/24 01:18:50;;;;;;;13.95;6.93;;;;;;;1.57;92.83;100119.31;5074272;28;20131;-65
2022/01/24 01:21:16;;;;;;;12.73;4.85;;;;;;;1.58;92.89;100121.97;5077378;28;20012;-65
2022/01/24 01:23:50;;;;;;;13.02;5.82;;;;;;;1.41;92.56;100116.94;5073510;28;20012;-65
2022/01/24 01:26:26;;;;;;;15.45;5.20;;;;;;;1.23;93.35;100122.28;5070762;28;20029;-65
2022/01/24 01:29:00;;;;;;;12.40;6.25;;;;;;;1.20;93.15;100127.34;5074175;28;20204;-65
2022/01/24 01:32:17;;;;;;;11.75;4.57;;;;;;;1.05;93.83;100124.13;5073054;28;20331;-65
2022/01/24 01:55:40;;;;;;;13.77;7.10;;;;;;;0.28;96.26;100137.13;5072157;28;20017;-65
2022/01/24 01:58:08;;;;;;;26.23;10.20;;;;;;;0.11;96.83;100141.53;5068573;28;20052;-65
2022/01/24 02:00:35;;;;;;;18.67;7.72;;;;;;;-0.04;97.05;100141.72;5064443;28;20029;-65
2022/01/24 02:03:01;;;;;;;20.65;8.52;;;;;;;-0.01;97.80;100135.81;5064224;28;20032;-65
2022/01/24 02:05:27;;;;;;;14.73;6.93;;;;;;;-0.04;97.53;100120.13;5067236;28;20036;-65
2022/01/24 02:07:53;;;;;;;13.40;5.53;;;;;;;-0.26;97.48;100120.84;5072520;28;20020;-65
2022/01/24 02:10:20;;;;;;;18.15;8.05;;;;;;;-0.14;98.47;100134.38;5073601;28;20025;-65
2022/01/24 02:12:47;;;;;;;14.75;7.20;;;;;;;-0.04;98.73;100123.63;5074456;28;20324;-65
2022/01/24 02:15:18;;;;;;;17.40;6.72;;;;;;;-0.04;98.13;100126.19;5075308;28;20027;-65
2022/01/24 02:20:26;;;;;;;19.98;8.88;;;;;;;-0.18;98.40;100126.38;5074227;28;20324;-65
2022/01/24 02:23:16;;;;;;;19.20;8.27;;;;;;;-0.20;98.44;100118.56;5073473;28;20028;-65
2022/01/24 02:25:38;;;;;;;31.38;10.80;;;;;;;-0.25;98.94;100125.19;5070996;28;20032;-65
2022/01/24 02:28:04;;;;;;;27.75;11.40;;;;;;;-0.24;98.47;100116.66;5074708;28;20017;-65
2022/01/24 02:30:55;;;;;;;36.85;12.52;;;;;;;-0.32;98.88;100117.97;5069960;28;20041;-65
2022/01/24 02:33:21;;;;;;;31.48;11.02;;;;;;;-0.37;98.57;100118.59;5074130;28;20032;-65
2022/01/24 02:35:47;;;;;;;30.52;11.68;;;;;;;-0.45;98.55;100120.81;5071104;28;20025;-65
2022/01/24 02:46:00;;;;;;;24.33;10.48;;;;;;;-0.59;98.84;100114.09;5072572;28;20052;-65
2022/01/24 02:48:58;;;;;;;21.55;9.85;;;;;;;-0.69;99.44;100111.88;5074476;28;20058;-65
2022/01/24 02:54:30;;;;;;;15.90;7.10;;;;;;;-0.69;99.73;100119.63;5075052;28;20024;-65
2022/01/24 02:56:55;;;;;;;19.67;5.97;;;;;;;-0.59;99.37;100121.88;5069977;28;20028;-65
2022/01/24 02:59:21;;;;;;;15.90;7.57;;;;;;;-0.62;99.14;100113.97;5069740;28;20070;-65
2022/01/24 03:01:47;;;;;;;19.27;7.38;;;;;;;-0.70;98.50;100111.78;5074636;28;20032;-65
2022/01/24 03:04:13;;;;;;;20.15;8.57;;;;;;;-0.74;98.51;100100.44;5073418;28;20036;-65
2022/01/24 03:06:38;;;;;;;17.50;7.60;;;;;;;-0.78;98.47;100103.69;5074854;28;20247;-65
2022/01/24 03:09:06;;;;;;;15.50;6.85;;;;;;;-0.67;98.14;100106.78;5070746;28;20032;-65
2022/01/24 03:14:21;;;;;;;15.65;6.78;;;;;;;-0.66;97.88;100103.41;5069043;28;20446;-65
2022/01/24 03:16:47;;;;;;;16.92;7.38;;;;;;;-0.77;98.07;100089.94;5075420;28;20020;-65
2022/01/24 03:19:13;;;;;;;21.08;8.27;;;;;;;-1.00;98.51;100090.53;5070220;28;20080;-65
2022/01/24 03:21:38;;;;;;;39.95;14.13;;;;;;;-0.95;99.35;100088.19;5071398;28;20088;-65
2022/01/24 03:24:04;;;;;;;18.45;8.40;;;;;;;-0.91;99.66;100093.59;5071826;28;20023;-65
2022/01/24 03:26:30;;;;;;;18.15;7.55;;;;;;;-0.96;99.49;100088.97;5069198;28;20021;-65
2022/01/24 03:28:55;;;;;;;14.95;6.65;;;;;;;-0.95;99.79;100094.22;5074591;28;20017;-65
2022/01/24 03:31:21;;;;;;;20.45;6.55;;;;;;;-0.87;99.45;100077.41;5075356;28;20027;-65
2022/01/24 03:33:46;;;;;;;22.60;6.30;;;;;;;-0.89;99.88;100084.19;5074620;28;20017;-65
2022/01/24 03:36:12;;;;;;;17.55;6.95;;;;;;;-0.93;100.00;100079.69;5075950;28;20036;-65
2022/01/24 03:38:37;;;;;;;29.48;6.28;;;;;;;-0.93;100.00;100077.09;5076420;28;20044;-65
2022/01/24 03:41:03;;;;;;;27.50;8.98;;;;;;;-0.94;100.00;100080.50;5072763;28;20032;-65
2022/01/24 03:43:28;;;;;;;19.92;7.95;;;;;;;-0.94;100.00;100079.63;5072939;28;20036;-65
2022/01/24 03:46:24;;;;;;;17.67;6.95;;;;;;;-1.15;100.00;100069.13;5082170;28;20339;-65
2022/01/24 03:48:53;;;;;;;17.20;6.43;;;;;;;-1.09;99.72;100065.94;5086762;28;20023;-65
2022/01/24 03:51:21;;;;;;;19.95;7.05;;;;;;;-1.19;99.32;100072.38;5086791;28;20323;-65
2022/01/24 03:53:47;;;;;;;14.23;6.28;;;;;;;-1.16;99.36;100072.53;5086854;28;20331;-65
2022/01/24 03:56:13;;;;;;;11.07;6.07;;;;;;;-1.06;99.33;100079.91;5086649;28;20024;-65
2022/01/24 03:58:39;;;;;;;15.18;6.90;;;;;;;-1.08;99.46;100081.53;5086596;28;20035;-65
2022/01/24 04:01:06;;;;;;;14.90;6.00;;;;;;;-1.04;98.92;100088.59;5076002;28;20313;-65
2022/01/24 04:03:32;;;;;;;10.57;6.18;;;;;;;-0.99;98.63;100075.91;5073829;28;20016;-65
2022/01/24 04:05:58;;;;;;;10.32;5.47;;;;;;;-1.15;97.91;100074.28;5073786;28;20023;-65
2022/01/24 04:08:23;;;;;;;18.30;7.00;;;;;;;-1.18;97.57;100079.31;5074067;28;20020;-65
2022/01/24 04:10:53;;;;;;;19.67;5.88;;;;;;;-1.33;97.94;100073.38;5072410;28;20051;-65
2022/01/24 04:13:37;;;;;;;15.05;7.10;;;;;;;-1.32;98.74;100075.16;5075050;28;20066;-65
2022/01/24 04:21:26;;;;;;;16.42;6.45;;;;;;;-1.23;98.48;100085.06;5070912;28;20351;-65
2022/01/24 04:24:03;;;;;;;10.50;6.07;;;;;;;-1.33;98.13;100081.09;5074018;28;20028;-65
2022/01/24 04:26:29;;;;;;;11.68;5.88;;;;;;;-1.28;98.15;100082.25;5074350;28;20027;-65
2022/01/24 04:28:55;;;;;;;15.25;6.20;;;;;;;-1.28;98.32;100087.41;5071099;28;20017;-65
2022/01/24 04:31:22;;;;;;;14.98;6.13;;;;;;;-1.37;97.64;100096.38;5074376;28;20033;-65
2022/01/24 04:33:48;;;;;;;14.45;6.18;;;;;;;-1.41;98.03;100092.78;5072796;28;20312;-65
2022/01/24 04:36:13;;;;;;;12.25;5.85;;;;;;;-1.34;98.14;100092.25;5068205;28;20092;-65
2022/01/24 04:38:39;;;;;;;36.70;6.03;;;;;;;-1.28;97.91;100100.31;5075982;28;20028;-65
2022/01/24 04:41:06;;;;;;;15.15;5.75;;;;;;;-1.55;97.64;100098.03;5076296;28;20024;-65
2022/01/24 04:46:31;;;;;;;12.68;7.55;;;;;;;-1.50;98.42;100109.47;5074678;28;20059;-65
2022/01/24 04:56:42;;;;;;;20.60;8.63;;;;;;;-1.67;98.48;100103.47;5075842;28;20025;-65
2022/01/24 04:59:09;;;;;;;25.33;7.20;;;;;;;-1.65;98.60;100099.25;5073740;28;20291;-67
2022/01/24 05:01:35;;;;;;;14.82;7.13;;;;;;;-1.73;98.47;100100.56;5070950;28;20016;-66
2022/01/24 05:04:00;;;;;;;12.18;4.60;;;;;;;-1.64;98.95;100101.06;5072522;28;20035;-66
2022/01/24 05:06:27;;;;;;;18.65;6.35;;;;;;;-1.56;98.28;100089.41;5079460;28;20044;-68
2022/01/24 05:08:53;;;;;;;12.40;6.03;;;;;;;-1.69;97.93;100092.16;5079872;28;20299;-67
2022/01/24 05:11:25;;;;;;;10.07;4.43;;;;;;;-1.81;97.68;100081.19;5085047;28;20062;-67
2022/01/24 05:24:39;;;;;;;14.18;6.28;;;;;;;-1.75;98.03;100081.53;5085198;28;20024;-67
2022/01/24 05:27:05;;;;;;;12.05;5.53;;;;;;;-1.72;97.96;100085.94;5084927;28;20025;-67
2022/01/24 05:29:31;;;;;;;9.63;5.53;;;;;;;-1.75;97.64;100088.38;5084825;28;20031;-67
2022/01/24 05:31:57;;;;;;;14.55;6.20;;;;;;;-1.75;97.80;100088.38;5084821;28;20024;-67
2022/01/24 05:34:23;;;;;;;13.27;6.20;;;;;;;-1.78;97.87;100091.69;5084668;28;20070;-67
2022/01/24 05:36:49;;;;;;;10.32;5.85;;;;;;;-1.80;98.00;100093.31;5084943;28;20203;-67
2022/01/24 05:39:15;;;;;;;13.25;4.53;;;;;;;-1.72;97.65;100092.00;5084636;28;20024;-67
2022/01/24 05:41:40;;;;;;;9.18;5.45;;;;;;;-1.98;96.54;100092.34;5084842;28;20016;-67
2022/01/24 05:44:07;;;;;;;11.35;5.45;;;;;;;-2.00;96.92;100087.94;5084533;28;20212;-67
2022/01/24 05:46:33;;;;;;;15.65;6.47;;;;;;;-2.02;97.67;100093.00;5083236;28;20020;-67
2022/01/24 05:49:00;;;;;;;13.00;5.45;;;;;;;-2.05;97.95;100090.25;5083928;28;20032;-67
2022/01/24 05:51:25;;;;;;;9.40;4.30;;;;;;;-1.97;98.89;100088.09;5083564;28;20024;-67
2022/01/24 05:53:51;;;;;;;17.77;6.95;;;;;;;-1.95;99.63;100091.63;5084360;28;20021;-67
2022/01/24 05:56:17;;;;;;;23.23;6.55;;;;;;;-1.98;99.43;100087.19;5084335;28;20020;-67
2022/01/24 05:58:43;;;;;;;18.75;9.75;;;;;;;-1.96;99.33;100085.59;5084305;28;20020;-67
2022/01/24 06:01:08;;;;;;;26.92;7.05;;;;;;;-1.89;99.00;100081.63;5084336;28;20320;-67
2022/01/24 06:03:35;;;;;;;18.60;7.60;;;;;;;-1.95;98.27;100082.19;5084531;28;20016;-67
2022/01/24 06:06:01;;;;;;;22.08;5.97;;;;;;;-1.97;98.28;100078.63;5084503;28;20023;-67
2022/01/24 06:08:27;;;;;;;17.48;7.20;;;;;;;-1.93;98.09;100085.72;5084195;28;20013;-67
2022/01/24 06:10:53;;;;;;;13.77;5.80;;;;;;;-1.93;97.72;100088.28;5084193;28;20024;-67
2022/01/24 06:13:19;;;;;;;10.32;4.70;;;;;;;-2.14;96.94;100087.19;5083880;28;20366;-67
2022/01/24 06:15:44;;;;;;;11.18;5.55;;;;;;;-2.02;97.31;100077.53;5084141;28;20029;-67
2022/01/24 06:18:10;;;;;;;10.35;4.88;;;;;;;-2.11;96.86;100089.94;5082921;28;20070;-68
2022/01/24 06:20:35;;;;;;;11.70;5.25;;;;;;;-2.13;97.03;100081.22;5083082;28;20201;-67
2022/01/24 06:23:01;;;;;;;16.13;5.60;;;;;;;-2.19;97.05;100080.88;5083104;28;20036;-68
2022/01/24 06:25:29;;;;;;;11.18;5.45;;;;;;;-2.31;97.63;100081.13;5082988;28;20101;-67
2022/01/24 06:27:55;;;;;;;13.15;6.13;;;;;;;-2.29;98.15;100094.09;5068090;28;20312;-67
2022/01/24 06:30:21;;;;;;;11.90;5.28;;;;;;;-2.31;98.84;100095.72;5062949;28;20081;-67
2022/01/24 06:32:47;;;;;;;14.02;5.57;;;;;;;-2.20;99.43;100089.44;5062520;28;20202;-67
2022/01/24 06:35:14;;;;;;;21.13;9.52;;;;;;;-2.14;99.54;100087.19;5062822;28;20028;-67
2022/01/24 06:37:40;;;;;;;28.52;13.18;;;;;;;-2.15;99.44;100082.84;5062854;28;20096;-67
2022/01/24 06:40:08;;;;;;;22.33;10.45;;;;;;;-2.27;99.02;100087.34;5062850;28;20029;-67
2022/01/24 06:42:34;;;;;;;25.55;11.82;;;;;;;-2.22;98.97;100091.03;5062842;28;20095;-67
2022/01/24 06:44:59;;;;;;;26.98;12.45;;;;;;;-2.21;98.82;100092.84;5062401;28;20313;-67
2022/01/24 06:47:25;;;;;;;24.23;11.63;;;;;;;-2.26;99.08;100089.09;5062772;28;20029;-67
2022/01/24 06:49:51;;;;;;;36.45;15.27;;;;;;;-2.24;99.10;100088.38;5063491;28;20348;-67
2022/01/24 06:52:17;;;;;;;23.23;12.02;;;;;;;-2.24;99.02;100087.50;5066224;28;20028;-68
2022/01/24 06:54:43;;;;;;;34.20;13.93;;;;;;;-2.23;98.80;100094.44;5062765;28;20021;-68
2022/01/24 06:57:11;;;;;;;24.52;10.65;;;;;;;-2.16;98.59;100096.53;5063514;28;20024;-68
2022/01/24 06:59:41;;;;;;;29.20;10.73;;;;;;;-2.22;97.88;100103.94;5063459;28;20389;-67
2022/01/24 07:02:07;;;;;;;21.45;10.60;;;;;;;-2.28;97.75;100107.06;5062451;28;20021;-67
2022/01/24 07:04:33;;;;;;;27.85;11.52;;;;;;;-2.34;97.98;100103.28;5067511;28;20052;-67
2022/01/24 07:06:58;;;;;;;35.92;13.23;;;;;;;-2.39;98.31;100103.03;5067803;28;20376;-67
2022/01/24 07:09:24;;;;;;;39.90;15.10;;;;;;;-2.40;98.49;100100.38;5067572;28;20324;-67
2022/01/24 07:11:51;;;;;;;45.97;17.83;;;;;;;-2.32;98.48;100099.09;5067348;28;20033;-67
2022/01/24 07:14:16;;;;;;;38.63;12.13;;;;;;;-2.25;98.37;100090.88;5067571;28;20331;-67
2022/01/24 07:19:34;;;;;;;15.27;8.18;;;;;;;-2.23;99.16;100094.44;5058961;28;20061;-67
2022/01/24 07:22:02;;;;;;;39.25;14.73;;;;;;;-2.22;98.97;100095.31;5067257;28;20343;-67
2022/01/24 07:24:27;;;;;;;40.25;15.82;;;;;;;-2.21;98.54;100103.16;5067133;28;20321;-67
2022/01/24 07:26:53;;;;;;;35.95;15.30;;;;;;;-2.24;98.73;100097.81;5067229;28;20032;-67
2022/01/24 07:29:20;;;;;;;33.72;15.35;;;;;;;-2.16;98.69;100100.81;5067104;28;20024;-67
2022/01/24 07:31:46;;;;;;;32.17;13.68;;;;;;;-2.21;98.11;100098.84;5067103;28;20021;-67
2022/01/24 07:34:12;;;;;;;32.35;13.35;;;;;;;-2.22;98.59;100101.34;5066963;28;20021;-67
2022/01/24 07:36:38;;;;;;;45.72;13.10;;;;;;;-2.15;98.98;100105.16;5067022;28;20036;-67
2022/01/24 07:39:03;;;;;;;30.63;12.50;;;;;;;-2.03;99.20;100109.25;5066931;28;20280;-67
2022/01/24 07:41:31;;;;;;;26.60;11.05;;;;;;;-1.79;100.00;100105.41;5066882;28;20028;-67
2022/01/24 07:43:57;;;;;;;31.33;11.65;;;;;;;-1.83;99.59;100111.22;5066775;28;20016;-67
2022/01/24 07:46:23;;;;;;;18.00;9.35;;;;;;;-1.49;100.00;100109.56;5066796;28;20028;-67
2022/01/24 07:48:49;;;;;;;23.48;10.20;;;;;;;-0.99;100.00;100115.56;5066754;28;20021;-67
2022/01/24 07:51:15;;;;;;;19.50;8.85;;;;;;;-0.99;100.00;100118.16;5066720;28;20031;-67
2022/01/24 07:53:42;;;;;;;27.38;8.50;;;;;;;-0.72;100.00;100124.69;5066594;28;20220;-67
2022/01/24 07:56:08;;;;;;;16.20;8.55;;;;;;;-0.29;100.00;100122.41;5066876;28;20309;-67
2022/01/24 07:58:34;;;;;;;20.17;7.55;;;;;;;-0.10;100.00;100118.16;5066592;28;20062;-67
2022/01/24 08:00:59;;;;;;;18.35;7.85;;;;;;;0.04;100.00;100123.97;5066804;28;20017;-67
2022/01/24 08:03:26;;;;;;;16.20;8.48;;;;;;;0.12;100.00;100117.41;5066562;28;20020;-67
2022/01/24 08:05:52;;;;;;;13.43;6.50;;;;;;;0.33;100.00;100117.50;5066404;28;20025;-67
2022/01/24 08:08:18;;;;;;;18.23;8.57;;;;;;;0.34;100.00;100104.59;5066405;28;20112;-67
2022/01/24 08:10:43;;;;;;;19.05;7.43;;;;;;;0.50;100.00;100098.41;5066371;28;20025;-67
2022/01/24 08:13:09;;;;;;;16.70;8.50;;;;;;;0.57;99.27;100098.72;5066113;28;20037;-67
2022/01/24 08:15:34;;;;;;;19.52;7.43;;;;;;;0.61;98.86;100100.66;5065583;28;20021;-67
2022/01/24 08:18:00;;;;;;;17.55;8.43;;;;;;;0.73;98.96;100102.88;5066288;28;20020;-66
2022/01/24 08:20:25;;;;;;;18.75;9.38;;;;;;;0.90;98.07;100110.53;5066425;28;20314;-67
2022/01/24 08:22:51;;;;;;;15.57;7.55;;;;;;;0.99;98.00;100095.38;5066118;28;20320;-67
2022/01/24 08:25:17;;;;;;;18.77;9.02;;;;;;;1.11;97.80;100100.16;5065994;28;20032;-67
2022/01/24 08:27:43;;;;;;;20.40;8.10;;;;;;;1.19;97.75;100101.34;5066036;28;20025;-67
2022/01/24 08:30:13;;;;;;;20.20;7.60;;;;;;;1.28;97.77;100101.72;5065988;28;20070;-67
2022/01/24 08:32:39;;;;;;;13.57;6.75;;;;;;;1.52;97.69;100105.31;5065908;28;20217;-67
2022/01/24 08:35:06;;;;;;;18.30;7.78;;;;;;;1.93;97.09;100108.66;5065800;28;20258;-67
2022/01/24 08:37:31;;;;;;;16.10;8.73;;;;;;;2.70;94.60;100106.31;5065847;28;20228;-67
2022/01/24 08:39:58;;;;;;;12.32;7.20;;;;;;;3.67;90.29;100116.50;5065828;28;20025;-67
2022/01/24 08:47:23;;;;;;;13.13;6.47;;;;;;;5.79;78.98;100092.78;5066045;28;20025;-67
2022/01/24 08:49:50;;;;;;;18.10;8.38;;;;;;;5.89;77.21;100090.41;5065909;28;20020;-67
2022/01/24 08:52:15;;;;;;;19.63;7.95;;;;;;;6.50;75.87;100082.13;5065641;28;20025;-67
2022/01/24 08:54:41;;;;;;;13.88;6.15;;;;;;;6.34;75.59;100090.50;5065482;28;20017;-67
2022/01/24 08:57:07;;;;;;;17.15;7.25;;;;;;;6.34;75.21;100085.28;5065482;28;20092;-67
2022/01/24 08:59:33;;;;;;;15.07;7.20;;;;;;;6.94;73.81;100096.94;5065707;28;20070;-67
2022/01/24 09:02:00;;;;;;;14.15;7.03;;;;;;;6.98;72.43;100093.50;5065415;28;20024;-67
2022/01/24 09:04:25;;;;;;;16.02;7.45;;;;;;;7.22;72.73;100093.06;5065339;28;20021;-67
2022/01/24 09:06:52;;;;;;;12.23;6.43;;;;;;;7.58;70.93;100097.16;5065377;28;20052;-67
2022/01/24 09:09:18;;;;;;;10.95;6.07;;;;;;;7.55;69.77;100091.88;5065526;28;20043;-67
2022/01/24 09:11:44;;;;;;;10.75;5.00;;;;;;;7.48;70.79;100103.13;5065244;28;20328;-67
2022/01/24 09:14:09;;;;;;;11.93;5.50;;;;;;;7.48;70.28;100103.13;5065130;28;20092;-67
2022/01/24 09:16:36;;;;;;;11.43;6.32;;;;;;;7.81;69.84;100121.97;5065373;28;20044;-67
2022/01/24 09:19:03;;;;;;;11.23;5.68;;;;;;;7.42;70.25;100202.56;5065055;28;20023;-67
2022/01/24 09:21:34;;;;;;;14.02;5.32;;;;;;;7.97;69.68;100301.38;5065017;28;20332;-67
2022/01/24 09:24:00;;;;;;;14.40;6.60;;;;;;;7.37;69.73;100078.47;5064966;28;20021;-67
2022/01/24 09:26:26;;;;;;;12.10;5.88;;;;;;;7.91;70.26;100105.53;5065043;28;20332;-67
2022/01/24 09:28:51;;;;;;;9.23;5.68;;;;;;;7.88;69.71;100097.59;5064864;28;20029;-67
2022/01/24 09:31:17;;;;;;;14.05;6.15;;;;;;;8.09;68.11;100084.81;5064823;28;20024;-67
2022/01/24 09:33:42;;;;;;;10.57;5.45;;;;;;;8.42;67.73;100085.25;5064715;28;20051;-67
2022/01/24 09:36:08;;;;;;;9.45;4.93;;;;;;;8.19;67.93;100078.81;5064973;28;20024;-67
2022/01/24 09:38:34;;;;;;;11.20;5.03;;;;;;;7.98;68.12;100081.16;5064700;28;20032;-67
2022/01/24 09:41:06;;;;;;;14.00;6.93;;;;;;;8.13;66.80;100086.59;5064643;28;20024;-67
2022/01/24 09:43:32;;;;;;;;;;;;;;;8.57;66.87;100093.31;5065166;28;20204;-67
2022/01/24 09:45:59;;;;;;;9.68;5.40;;;;;;;7.88;67.20;100095.00;5064578;28;19905;-66
2022/01/24 09:48:25;;;;;;;8.60;5.13;;;;;;;7.80;68.32;100086.16;5064535;28;20048;-67
2022/01/24 09:50:52;;;;;;;10.10;4.80;;;;;;;8.17;68.26;100083.16;5064731;28;20321;-67
2022/01/24 09:53:19;;;;;;;9.55;4.75;;;;;;;8.12;67.42;100090.09;5064303;28;20339;-67
2022/01/24 09:55:45;;;;;;;8.90;5.32;;;;;;;7.76;68.42;100100.06;5064649;28;20261;-67
2022/01/24 09:58:11;;;;;;;12.48;6.53;;;;;;;7.71;70.10;100096.50;5064338;28;20021;-67
2022/01/24 10:00:38;;;;;;;9.98;5.30;;;;;;;7.43;69.50;100102.16;5064299;28;20025;-67
2022/01/24 10:03:04;;;;;;;11.07;5.68;;;;;;;7.54;69.55;100103.22;5064258;28;20321;-67
2022/01/24 10:05:37;;;;;;;14.02;5.45;;;;;;;6.72;72.18;100097.38;5064201;28;20025;-67
2022/01/24 10:08:05;;;;;;;13.77;5.45;;;;;;;6.67;73.32;100098.16;5064514;28;20308;-67
2022/01/24 10:10:41;;;;;;;14.00;6.20;;;;;;;6.72;73.80;100094.78;5064420;28;20023;-67
2022/01/24 10:16:25;;;;;;;16.83;7.05;;;;;;;6.18;75.02;100099.78;5064074;28;20107;-67
2022/01/24 10:19:03;;;;;;;9.25;5.38;;;;;;;6.13;76.09;100097.91;5064032;28;20135;-67
2022/01/24 10:21:29;;;;;;;12.15;6.70;;;;;;;6.02;76.10;100097.66;5064047;28;20048;-67
2022/01/24 10:23:55;;;;;;;11.77;5.65;;;;;;;5.70;77.02;100095.16;5064032;28;20029;-67
2022/01/24 10:26:23;;;;;;;12.68;6.18;;;;;;;5.66;77.41;100086.38;5063925;28;20132;-67
2022/01/24 10:28:49;;;;;;;13.88;6.53;;;;;;;5.79;78.76;100087.53;5063901;28;20025;-67
2022/01/24 10:31:23;;;;;;;15.25;7.57;;;;;;;5.86;77.85;100092.94;5064159;28;20067;-67
2022/01/24 10:34:07;;;;;;;16.55;6.95;;;;;;;5.93;77.02;100080.91;5064031;28;20039;-67
2022/01/24 10:36:33;;;;;;;17.80;6.78;;;;;;;5.82;78.21;100092.88;5063868;28;20071;-67
2022/01/24 10:39:44;;;;;;;11.45;6.28;;;;;;;5.80;78.22;100094.53;5063514;28;20035;-67
2022/01/24 10:44:48;;;;;;;13.05;6.15;;;;;;;6.02;76.52;100086.34;5064114;28;20024;-67
2022/01/24 10:47:15;;;;;;;16.27;6.95;;;;;;;5.87;77.36;100080.78;5063698;28;20092;-67
2022/01/24 10:49:42;;;;;;;15.10;6.53;;;;;;;5.90;78.17;100080.84;5076569;28;20025;-67
2022/01/24 10:52:09;;;;;;;12.25;6.35;;;;;;;5.93;78.35;100080.91;5082152;28;20028;-67
2022/01/24 10:54:35;;;;;;;13.38;6.18;;;;;;;6.06;77.06;100072.50;5073911;28;20028;-67
2022/01/24 10:57:00;;;;;;;9.13;5.13;;;;;;;6.00;77.22;100072.34;5080828;28;20054;-67
2022/01/24 10:59:26;;;;;;;15.98;6.47;;;;;;;6.09;77.16;100067.31;5083958;28;20312;-67
2022/01/24 11:01:51;;;;;;;15.20;6.15;;;;;;;6.21;76.66;100068.44;5075113;28;20339;-67
2022/01/24 11:04:18;;;;;;;13.35;6.20;;;;;;;6.07;77.23;100055.94;5079244;28;20028;-67
2022/01/24 11:06:48;;;;;;;13.05;6.50;;;;;;;6.15;77.04;100059.63;5072847;28;20020;-67
2022/01/24 11:09:24;;;;;;;11.00;5.63;;;;;;;6.34;76.54;100053.91;5072322;28;20327;-67
2022/01/24 11:11:56;;;;;;;12.93;5.07;;;;;;;6.46;75.49;100059.38;5070455;28;20044;-67
2022/01/24 11:14:24;;;;;;;12.65;5.90;;;;;;;6.26;75.66;100050.25;5072014;28;20028;-67
2022/01/24 11:16:51;;;;;;;12.10;5.88;;;;;;;6.49;75.62;100055.06;5066140;28;20017;-67
2022/01/24 11:19:27;;;;;;;10.40;5.35;;;;;;;6.26;75.83;100055.47;5062308;28;20024;-67
2022/01/24 11:21:58;;;;;;;22.27;6.68;;;;;;;6.43;75.56;100054.09;5063998;28;20087;-67
2022/01/24 11:24:36;;;;;;;13.95;6.32;;;;;;;6.60;74.63;100052.66;5082461;28;20017;-67
2022/01/24 11:27:03;;;;;;;12.18;6.22;;;;;;;6.64;75.00;100055.38;5082508;28;20028;-67
2022/01/24 11:29:29;;;;;;;10.02;5.35;;;;;;;6.90;73.98;100047.13;5082483;28;20028;-67
2022/01/24 11:32:15;;;;;;;12.60;5.97;;;;;;;6.88;73.83;100039.25;5082092;28;20024;-67
2022/01/24 11:34:42;;;;;;;14.77;6.90;;;;;;;6.78;73.08;100039.94;5082650;28;20258;-67
2022/01/24 11:37:08;;;;;;;10.57;6.18;;;;;;;6.57;74.27;100043.03;5082361;28;20044;-67
2022/01/24 11:39:36;;;;;;;13.77;6.05;;;;;;;6.81;73.58;100045.22;5082372;28;20024;-67
2022/01/24 11:42:03;;;;;;;16.73;6.63;;;;;;;7.06;73.31;100043.91;5077697;28;20312;-67
2022/01/24 11:44:49;;;;;;;18.45;7.03;;;;;;;6.87;73.20;100050.56;5083318;28;20312;-67
2022/01/24 11:47:23;;;;;;;17.08;5.85;;;;;;;6.93;72.94;100048.03;5083536;28;20185;-67
2022/01/24 11:49:53;;;;;;;12.75;6.05;;;;;;;7.22;71.91;100046.81;5084186;28;20358;-67
2022/01/24 11:52:20;;;;;;;11.40;6.03;;;;;;;6.88;72.63;100039.25;5086784;28;20050;-67
2022/01/24 11:57:33;;;;;;;17.15;6.55;;;;;;;7.06;73.28;100036.06;5086705;28;20328;-66
2022/01/24 12:00:01;;;;;;;14.48;8.13;;;;;;;6.80;72.96;100035.59;5086674;28;20048;-67
2022/01/24 12:02:30;;;;;;;12.70;6.25;;;;;;;6.66;73.55;100037.09;5086651;28;20024;-66
2022/01/24 12:04:59;;;;;;;12.65;6.50;;;;;;;6.78;73.79;100042.56;5086799;28;20024;-66
2022/01/24 12:07:30;;;;;;;13.93;5.78;;;;;;;6.97;72.89;100042.03;5086508;28;20028;-66
2022/01/24 12:10:25;;;;;;;11.13;6.00;;;;;;;6.95;72.88;100035.88;5086527;28;20028;-66
2022/01/24 12:12:54;;;;;;;11.27;5.63;;;;;;;7.09;73.03;100044.81;5086162;28;20404;-66
2022/01/24 12:15:40;;;;;;;13.65;6.82;;;;;;;7.20;72.18;100038.03;5086263;28;20024;-66
2022/01/24 12:18:08;;;;;;;10.90;6.28;;;;;;;7.40;71.89;100036.59;5086325;28;20035;-66
2022/01/24 12:20:42;;;;;;;12.13;6.30;;;;;;;7.22;71.64;100041.59;5086242;28;20291;-66
2022/01/24 12:23:16;;;;;;;13.00;5.72;;;;;;;6.97;72.19;100047.25;5086210;28;20031;-67
2022/01/24 12:26:00;;;;;;;10.32;5.55;;;;;;;6.92;73.44;100041.06;5086089;28;20039;-67
2022/01/24 12:28:29;;;;;;;10.95;5.97;;;;;;;6.93;73.43;100047.19;5086106;28;20020;-67
2022/01/24 12:31:02;;;;;;;15.43;6.57;;;;;;;6.87;72.98;100031.38;5086330;28;20024;-67
2022/01/24 12:33:33;;;;;;;16.27;6.25;;;;;;;6.74;73.31;100025.00;5085965;28;20024;-67
2022/01/24 12:35:59;;;;;;;9.88;6.18;;;;;;;6.86;74.05;100029.59;5086021;28;20031;-67
2022/01/24 12:38:25;;;;;;;19.75;6.85;;;;;;;6.54;74.47;100031.63;5086012;28;20316;-66
2022/01/24 12:41:20;;;;;;;15.63;6.68;;;;;;;6.63;74.70;100022.22;5085895;28;20027;-66
2022/01/24 12:46:31;;;;;;;12.48;5.90;;;;;;;6.47;75.21;100019.28;5086155;28;20024;-66
2022/01/24 12:48:59;;;;;;;11.85;6.10;;;;;;;6.58;75.55;100022.97;5085771;28;20033;-66
2022/01/24 12:51:27;;;;;;;16.50;6.57;;;;;;;6.69;75.58;100021.44;5085706;28;20051;-66
2022/01/24 12:53:53;;;;;;;13.63;5.90;;;;;;;6.68;75.53;100024.94;5085562;28;20032;-66
2022/01/24 12:56:27;;;;;;;15.70;6.88;;;;;;;6.70;75.11;100017.97;5085843;28;20320;-66
2022/01/24 12:58:53;;;;;;;17.48;6.07;;;;;;;6.77;75.38;100025.06;5085515;28;20020;-67
2022/01/24 13:01:21;;;;;;;14.10;5.68;;;;;;;6.59;75.32;100035.22;5085040;28;20031;-68
2022/01/24 13:03:57;;;;;;;11.80;6.07;;;;;;;6.61;75.44;100028.25;5085451;28;20080;-67
2022/01/24 13:06:25;;;;;;;10.00;6.05;;;;;;;6.52;76.75;100022.88;5085376;28;20051;-67
2022/01/24 13:09:04;;;;;;;12.18;6.38;;;;;;;6.58;76.91;100030.81;5085546;28;20086;-67
2022/01/24 13:11:30;;;;;;;12.85;6.60;;;;;;;6.42;76.68;100021.81;5085156;28;20312;-67
2022/01/24 13:14:14;;;;;;;14.32;6.85;;;;;;;6.29;77.17;100013.69;5085154;28;20139;-67
2022/01/24 13:23:12;;;;;;;10.32;5.93;;;;;;;6.19;78.78;100004.81;5085077;28;20087;-67
2022/01/24 13:25:37;;;;;;;11.77;5.90;;;;;;;6.28;77.84;100017.19;5083690;28;20029;-67
2022/01/24 13:28:05;;;;;;;15.30;5.95;;;;;;;6.08;79.19;100005.47;5085226;28;20020;-67
2022/01/24 13:30:39;;;;;;;11.13;5.22;;;;;;;6.19;78.62;100011.75;5084891;28;20032;-67
2022/01/24 13:33:15;;;;;;;12.07;5.97;;;;;;;6.22;78.29;100006.59;5084941;28;20024;-67